Pagrindinis puslapis
METAR-TAF:

METAR-TAF

Oro uostai :

Amanas, Jordanija

platuma: 31-59N, ilguma: 035-59E, Aukštis: 767 m

Dabartinis oras

Ataskaita buvo paskelbta 36 minutes, ne 22:00 UTC
Vėjas 3 kt iš Šiaurės Rytų
Temperatūra 23°C
Drėgmė 41%
Slėgis 1015 hPa
Matomumas: 5000 m
migla

METAR: OJAM 202200Z 04003KT 5000 HZ NSC 23/09 Q1015 NOSIG

Laikas: 01:36 (22:36 UTC)

Prognozė

Ataskaita buvo paskelbta 5 valandos ir 36 minutes, ne 17:00 UTC
Prognozė galioja nuo 20 metu 18 UTC su 21 metu 24 UTC
Vėjas 8 kt iš Šiaurės Vakarų
Matomumas: 5000 m
migla
Tikimybė 30% :
Laikinai
nuo 21 metu 03 UTC su 21 metu 06 UTC
Matomumas: 4000 m

TAF: OJAM 201700Z 2018/2124 32008KT 5000 HZ NSC PROB30 TEMPO 2103/2106 4000

Orai ataskaitas ir orų prognozės (METAR, TAF).

turimą stotys yra geltonos ir raudonos taškus žemėlapyje.

Perkelti pele per norėdami pamatyti stoties vardą.

Tada spustelėkite, norėdami matyti oro stebėjimo ir prognozės.

Norėdami pakeisti žemėlapį: spustelėkite ant žalios mygtukų su juodo kryžiaus žemyn,; žalią mygtuką su brūkšneliu, jei norite nutolinti; arba žalių rodyklių gretimoms žemėlapius.


METAR-TAF: